Time;durP1;ratioP1;P1;durP2;ratioP2;P2;SDS_P1;SDS_P2;PMS_P1;PMS_P2;Temp;Humidity;BMP_temperature;BMP_pressure;BME280_temperature;BME280_humidity;BME280_pressure;Samples;Min_cycle;Max_cycle;Signal;HPM_P1;HPM_P2
2022/01/15 00:01:40;;;;;;;171.38;47.17;;;;;;;4.08;100.00;103186.25;5018181;28;20388;-51
2022/01/15 00:04:06;;;;;;;185.52;47.03;;;;;;;4.08;100.00;103187.16;5052457;28;20039;-54
2022/01/15 00:06:31;;;;;;;170.30;46.75;;;;;;;4.14;100.00;103203.00;5034810;28;20412;-51
2022/01/15 00:08:57;;;;;;;164.75;47.30;;;;;;;4.06;100.00;103183.59;5052292;28;20400;-51
2022/01/15 00:11:22;;;;;;;179.93;47.70;;;;;;;4.02;100.00;103168.72;5052227;28;20033;-56
2022/01/15 00:13:55;;;;;;;192.50;46.17;;;;;;;4.09;100.00;103188.91;5052204;28;20517;-53
2022/01/15 00:16:34;;;;;;;172.40;45.92;;;;;;;4.12;100.00;103198.53;5052408;28;20037;-55
2022/01/15 00:19:10;;;;;;;240.35;49.08;;;;;;;4.08;100.00;103181.94;5052197;28;20484;-54
2022/01/15 00:21:35;;;;;;;189.68;47.03;;;;;;;4.05;100.00;103187.06;5052252;28;20036;-53
2022/01/15 00:24:01;;;;;;;209.55;47.03;;;;;;;4.06;100.00;103185.34;5052010;28;20041;-55
2022/01/15 00:26:27;;;;;;;189.35;46.03;;;;;;;4.02;100.00;103178.25;5034505;28;20083;-54
2022/01/15 00:28:52;;;;;;;151.68;42.92;;;;;;;3.53;100.00;103089.84;5050992;28;20434;-51
2022/01/15 00:31:18;;;;;;;197.18;44.67;;;;;;;3.48;100.00;103078.38;5052251;28;20045;-48
2022/01/15 00:33:44;;;;;;;168.82;42.58;;;;;;;3.96;100.00;103178.94;5034110;28;20029;-57
2022/01/15 00:36:09;;;;;;;137.02;43.70;;;;;;;3.53;100.00;103088.16;5053070;28;20040;-55
2022/01/15 00:38:35;;;;;;;219.18;45.42;;;;;;;3.75;100.00;103133.97;5056079;28;20455;-54
2022/01/15 00:41:00;;;;;;;177.20;43.65;;;;;;;3.92;100.00;103164.94;5038239;28;20033;-55
2022/01/15 00:43:25;;;;;;;210.65;46.25;;;;;;;3.44;100.00;103082.63;5056264;28;20103;-53
2022/01/15 00:45:51;;;;;;;163.93;44.47;;;;;;;3.89;100.00;103150.91;5056022;28;20029;-59
2022/01/15 00:48:16;;;;;;;200.10;46.63;;;;;;;3.87;100.00;103147.38;5055792;28;20574;-57
2022/01/15 00:50:42;;;;;;;196.48;45.47;;;;;;;3.85;100.00;103162.94;5038040;28;20041;-54
2022/01/15 00:53:08;;;;;;;174.45;44.33;;;;;;;3.85;100.00;103143.84;5038123;28;20520;-56
2022/01/15 00:55:33;;;;;;;170.20;44.58;;;;;;;3.85;100.00;103149.94;5055960;28;20056;-52
2022/01/15 00:57:58;;;;;;;175.40;44.95;;;;;;;3.85;100.00;103147.31;5038040;28;20075;-52
2022/01/15 01:00:26;;;;;;;178.15;45.00;;;;;;;3.38;100.00;103059.00;5037929;28;20036;-58
2022/01/15 01:02:52;;;;;;;194.48;45.70;;;;;;;3.65;100.00;103109.34;5055483;28;20044;-54
2022/01/15 01:05:18;;;;;;;238.77;46.83;;;;;;;3.85;100.00;103147.31;5037876;28;20052;-55
2022/01/15 01:07:44;;;;;;;198.02;43.75;;;;;;;3.33;100.00;103051.03;5037578;28;20033;-52
2022/01/15 01:23:13;;;;;;;284.70;47.30;;;;;;;3.56;100.00;103090.81;5055559;28;20037;-56
2022/01/15 01:25:43;;;;;;;181.88;43.30;;;;;;;3.73;100.00;103120.91;5055245;28;20480;-55
2022/01/15 01:28:13;;;;;;;210.55;45.28;;;;;;;3.23;100.00;103033.38;5055114;28;20396;-55
2022/01/15 01:38:51;;;;;;;190.13;40.15;;;;;;;3.68;100.00;103113.75;5039293;28;20048;-58
2022/01/15 01:41:19;;;;;;;174.50;39.58;;;;;;;3.65;100.00;103106.72;5039447;28;20040;-57
2022/01/15 01:43:59;;;;;;;192.75;42.25;;;;;;;3.58;100.00;103103.91;5037412;28;20037;-55
2022/01/15 01:48:52;;;;;;;161.52;38.70;;;;;;;3.62;100.00;103116.19;5054656;28;20064;-53
2022/01/15 01:51:24;;;;;;;168.60;39.45;;;;;;;3.25;100.00;103049.91;5036712;28;20025;-55
2022/01/15 01:53:50;;;;;;;146.32;38.75;;;;;;;3.44;100.00;103086.94;5037103;28;20025;-52
2022/01/15 01:56:16;;;;;;;149.10;40.03;;;;;;;3.57;100.00;103096.91;5053646;28;20060;-56
2022/01/15 01:58:41;;;;;;;226.10;41.85;;;;;;;3.55;100.00;103099.47;5054795;28;20477;-55
2022/01/15 02:01:07;;;;;;;205.15;40.58;;;;;;;3.15;100.00;103020.94;5054512;28;20032;-55
2022/01/15 02:03:32;;;;;;;192.35;41.47;;;;;;;3.55;100.00;103088.19;5054608;28;20037;-52
2022/01/15 02:05:57;;;;;;;189.13;43.45;;;;;;;3.11;100.00;103008.66;5054520;28;20041;-58
2022/01/15 02:08:23;;;;;;;164.95;41.10;;;;;;;3.41;100.00;103059.09;5036839;28;20032;-57
2022/01/15 02:10:50;;;;;;;157.93;39.25;;;;;;;3.59;100.00;103082.25;5054477;28;20131;-50
2022/01/15 02:13:15;;;;;;;196.85;40.08;;;;;;;3.22;100.00;103017.69;5036646;28;20055;-56
2022/01/15 02:15:41;;;;;;;176.02;42.63;;;;;;;3.21;100.00;103023.75;5054238;28;20528;-52
2022/01/15 02:18:06;;;;;;;160.70;40.15;;;;;;;3.50;100.00;103068.94;5036376;28;20040;-53
2022/01/15 02:26:01;;;;;;;168.02;39.30;;;;;;;3.58;100.00;103064.84;5030796;28;20040;-55
2022/01/15 02:28:33;;;;;;;164.00;40.38;;;;;;;3.53;100.00;103069.03;5053779;28;20590;-58
2022/01/15 02:31:04;;;;;;;159.45;36.65;;;;;;;3.55;100.00;103063.03;5053631;28;20369;-53
2022/01/15 02:33:29;;;;;;;148.13;36.08;;;;;;;3.07;100.00;102980.75;5054045;28;20082;-53
2022/01/15 02:35:55;;;;;;;141.15;35.58;;;;;;;3.50;100.00;103075.03;5036193;28;20036;-53
2022/01/15 02:38:21;;;;;;;166.30;37.90;;;;;;;3.47;100.00;103056.69;5053637;28;20043;-53
2022/01/15 02:40:47;;;;;;;187.00;38.67;;;;;;;3.40;100.00;103041.72;5053902;28;20112;-56
2022/01/15 02:43:17;;;;;;;162.88;36.28;;;;;;;3.44;100.00;103053.09;5053835;28;20112;-54
2022/01/15 02:45:45;;;;;;;166.45;37.88;;;;;;;3.02;100.00;102961.53;5053868;28;20048;-58
2022/01/15 02:48:12;;;;;;;196.52;40.05;;;;;;;3.01;100.00;102964.94;5036310;28;20543;-57
2022/01/15 02:50:39;;;;;;;168.35;39.78;;;;;;;3.12;100.00;102976.59;5036080;28;20040;-54
2022/01/15 02:53:06;;;;;;;168.27;39.05;;;;;;;3.10;100.00;102970.44;5053720;28;20044;-55
2022/01/15 02:55:31;;;;;;;137.20;36.53;;;;;;;2.95;100.00;102928.34;5035849;28;20032;-54
2022/01/15 02:57:57;;;;;;;165.75;35.22;;;;;;;3.46;100.00;103028.00;5035541;28;20094;-58
2022/01/15 03:00:24;;;;;;;130.50;33.83;;;;;;;3.38;100.00;103028.66;5052483;28;20063;-54
2022/01/15 03:02:49;;;;;;;126.25;34.85;;;;;;;3.18;100.00;102992.41;5053588;28;20025;-55
2022/01/15 03:05:14;;;;;;;120.63;32.10;;;;;;;3.23;100.00;103011.66;5053354;28;20404;-54
2022/01/15 03:07:40;;;;;;;155.95;35.72;;;;;;;3.28;100.00;103025.69;5053234;28;20041;-55
2022/01/15 03:10:06;;;;;;;153.00;34.85;;;;;;;3.25;100.00;103023.00;5053199;28;20065;-54
2022/01/15 03:12:31;;;;;;;137.85;35.63;;;;;;;3.28;100.00;103012.69;5035293;28;20040;-56
2022/01/15 03:15:01;;;;;;;145.13;35.97;;;;;;;2.94;100.00;102956.09;5053186;28;20032;-56
2022/01/15 03:17:26;;;;;;;165.30;38.65;;;;;;;3.11;100.00;102978.31;5053639;28;20547;-54
2022/01/15 03:19:52;;;;;;;141.27;35.55;;;;;;;3.18;100.00;102995.03;5035267;28;20113;-57
2022/01/15 03:22:17;;;;;;;130.25;33.20;;;;;;;3.23;100.00;103009.94;5052907;28;20064;-51
2022/01/15 03:24:43;;;;;;;114.85;31.05;;;;;;;3.09;100.00;103003.41;5052952;28;20104;-53
2022/01/15 03:27:08;;;;;;;136.45;33.50;;;;;;;3.15;100.00;103016.59;5052909;28;20415;-55
2022/01/15 03:29:34;;;;;;;125.00;31.92;;;;;;;2.61;100.00;102924.66;5052823;28;20043;-56
2022/01/15 03:31:59;;;;;;;113.07;30.23;;;;;;;3.08;100.00;103011.16;5035028;28;20029;-54
2022/01/15 03:34:25;;;;;;;111.50;31.58;;;;;;;3.08;100.00;102996.44;5052811;28;20483;-59
2022/01/15 03:36:50;;;;;;;124.80;31.88;;;;;;;3.08;100.00;103012.03;5034960;28;20127;-55
2022/01/15 03:39:16;;;;;;;128.40;31.13;;;;;;;3.09;100.00;102986.91;5052575;28;20029;-48
2022/01/15 03:41:41;;;;;;;102.43;27.45;;;;;;;3.07;100.00;102980.75;5052742;28;20042;-50
2022/01/15 03:44:06;;;;;;;123.85;30.30;;;;;;;3.05;100.00;102985.94;5052675;28;20370;-57
2022/01/15 03:46:32;;;;;;;106.88;27.85;;;;;;;3.04;100.00;102984.16;5035295;28;20037;-51
2022/01/15 03:48:57;;;;;;;126.45;30.77;;;;;;;2.94;100.00;102969.09;5052665;28;20048;-53
2022/01/15 03:51:23;;;;;;;115.75;30.48;;;;;;;2.57;100.00;102906.31;5052324;28;20048;-51
2022/01/15 03:53:48;;;;;;;132.77;31.58;;;;;;;2.95;100.00;102959.56;5034785;28;20037;-52
2022/01/15 03:56:13;;;;;;;132.88;30.88;;;;;;;2.98;100.00;102964.88;5018127;28;20124;-55
2022/01/15 03:58:39;;;;;;;123.15;29.15;;;;;;;2.61;100.00;102890.84;5034477;28;20113;-54
2022/01/15 04:01:04;;;;;;;131.68;30.67;;;;;;;3.07;100.00;102968.63;5052382;28;20457;-57
2022/01/15 04:03:29;;;;;;;130.77;30.92;;;;;;;2.92;100.00;102941.28;5034530;28;20029;-55
2022/01/15 04:05:55;;;;;;;116.20;32.38;;;;;;;2.61;100.00;102884.75;5052528;28;20045;-55
2022/01/15 04:08:20;;;;;;;121.88;31.42;;;;;;;3.14;100.00;102974.94;5034588;28;20052;-55
2022/01/15 04:10:46;;;;;;;140.77;33.50;;;;;;;2.93;100.00;102936.09;5034010;28;20087;-56
2022/01/15 04:13:15;;;;;;;145.73;33.20;;;;;;;3.10;100.00;102967.84;5034491;28;20041;-58
2022/01/15 04:15:40;;;;;;;126.60;34.40;;;;;;;3.01;100.00;102949.34;5052637;28;20029;-51
2022/01/15 04:18:06;;;;;;;193.88;37.00;;;;;;;2.57;100.00;102870.78;5052269;28;20044;-58
2022/01/15 04:20:31;;;;;;;125.53;33.60;;;;;;;3.09;100.00;102956.59;5034478;28;20075;-52
2022/01/15 04:22:56;;;;;;;150.13;34.55;;;;;;;3.00;100.00;102935.47;5052324;28;20060;-55
2022/01/15 04:25:22;;;;;;;116.25;31.88;;;;;;;3.06;100.00;102961.69;5052121;28;20033;-55
2022/01/15 04:27:48;;;;;;;133.82;33.33;;;;;;;2.89;100.00;102931.63;5052127;28;20029;-52
2022/01/15 04:30:15;;;;;;;164.18;35.63;;;;;;;3.00;100.00;102956.28;5052273;28;20367;-57
2022/01/15 04:32:40;;;;;;;138.45;33.45;;;;;;;3.00;100.00;102966.69;5051914;28;20569;-57
2022/01/15 04:35:06;;;;;;;133.82;31.90;;;;;;;2.67;100.00;102883.25;5052152;28;20105;-54
2022/01/15 04:37:45;;;;;;;168.82;33.25;;;;;;;2.95;100.00;102942.22;5033970;28;20412;-52
2022/01/15 04:40:12;;;;;;;124.78;33.63;;;;;;;2.63;100.00;102883.09;5051694;28;20029;-54
2022/01/15 04:42:37;;;;;;;154.70;31.92;;;;;;;2.96;100.00;102945.72;5052223;28;20036;-51
2022/01/15 04:45:06;;;;;;;130.55;30.65;;;;;;;2.84;100.00;102908.06;5052175;28;20477;-53
2022/01/15 04:47:31;;;;;;;154.38;33.03;;;;;;;2.94;100.00;102932.69;5052123;28;20033;-55
2022/01/15 04:49:58;;;;;;;133.05;31.80;;;;;;;2.46;100.00;102855.66;5051598;28;20055;-55
2022/01/15 04:52:23;;;;;;;145.50;31.75;;;;;;;2.78;100.00;102917.38;5051767;28;20037;-51
2022/01/15 04:54:49;;;;;;;132.40;30.95;;;;;;;2.86;100.00;102930.66;5051829;28;20110;-53
2022/01/15 04:57:14;;;;;;;107.40;29.30;;;;;;;2.82;100.00;102927.06;5052056;28;20029;-57
2022/01/15 04:59:40;;;;;;;133.68;29.77;;;;;;;2.28;100.00;102828.25;5033995;28;20033;-54
2022/01/15 05:02:05;;;;;;;116.63;30.15;;;;;;;2.82;100.00;102920.16;5051995;28;20405;-51
2022/01/15 05:04:30;;;;;;;142.93;31.17;;;;;;;2.83;100.00;102921.03;5051553;28;20041;-55
2022/01/15 05:06:56;;;;;;;139.93;33.38;;;;;;;2.31;100.00;102830.06;5033723;28;20041;-57
2022/01/15 05:09:21;;;;;;;121.78;29.60;;;;;;;2.72;100.00;102901.59;5050322;28;20052;-55
2022/01/15 05:11:49;;;;;;;163.50;31.23;;;;;;;2.78;100.00;102923.47;5034079;28;20115;-57
2022/01/15 05:14:17;;;;;;;117.60;28.65;;;;;;;2.35;100.00;102833.66;5051812;28;20040;-55
2022/01/15 05:16:43;;;;;;;123.10;29.90;;;;;;;2.76;100.00;102906.06;5051675;28;20040;-54
2022/01/15 05:19:08;;;;;;;122.25;27.48;;;;;;;2.71;100.00;102892.94;5033731;28;20480;-52
2022/01/15 05:21:34;;;;;;;112.10;27.23;;;;;;;2.22;100.00;102812.44;5033813;28;20166;-58
2022/01/15 05:23:59;;;;;;;116.78;25.90;;;;;;;2.68;100.00;102887.63;5037498;28;20072;-56
2022/01/15 05:26:25;;;;;;;139.15;28.52;;;;;;;2.61;100.00;102876.97;5055247;28;20025;-57
2022/01/15 05:28:50;;;;;;;93.30;26.20;;;;;;;2.13;100.00;102799.16;5054967;28;20064;-52
2022/01/15 05:31:15;;;;;;;151.23;29.13;;;;;;;2.20;100.00;102815.84;5037140;28;20083;-51
2022/01/15 05:33:41;;;;;;;117.60;27.23;;;;;;;2.14;100.00;102795.75;5037178;28;20029;-50
2022/01/15 05:36:06;;;;;;;130.70;28.85;;;;;;;2.54;100.00;102869.81;5055107;28;20025;-56
2022/01/15 05:38:32;;;;;;;146.93;29.08;;;;;;;2.45;100.00;102866.91;5053572;28;20037;-54
2022/01/15 05:41:00;;;;;;;141.60;28.10;;;;;;;2.13;100.00;102813.88;5037493;28;20056;-54
2022/01/15 05:43:26;;;;;;;152.45;29.33;;;;;;;2.31;100.00;102843.06;5055062;28;20033;-57
2022/01/15 05:45:51;;;;;;;116.60;27.23;;;;;;;2.44;100.00;102867.75;5036997;28;20033;-58
2022/01/15 05:48:16;;;;;;;126.50;29.08;;;;;;;2.34;100.00;102839.66;5036962;28;20124;-57
2022/01/15 05:50:42;;;;;;;159.27;27.95;;;;;;;2.03;100.00;102788.41;5036689;28;20037;-56
2022/01/15 05:53:07;;;;;;;164.10;30.00;;;;;;;2.45;100.00;102853.91;5054699;28;20037;-52
2022/01/15 05:55:33;;;;;;;171.82;28.77;;;;;;;1.97;100.00;102785.63;5036759;28;20033;-57
2022/01/15 05:57:58;;;;;;;126.80;25.98;;;;;;;2.26;100.00;102836.81;5036908;28;20032;-56
2022/01/15 06:00:23;;;;;;;136.50;26.50;;;;;;;2.32;100.00;102849.13;5036943;28;20039;-59
2022/01/15 06:02:49;;;;;;;108.22;27.50;;;;;;;2.28;100.00;102840.34;5054728;28;20033;-51
2022/01/15 06:05:14;;;;;;;110.20;26.20;;;;;;;1.87;100.00;102752.41;5054496;28;20033;-56
2022/01/15 06:07:40;;;;;;;105.45;26.70;;;;;;;2.26;100.00;102827.31;5036601;28;20033;-53
2022/01/15 06:10:05;;;;;;;191.77;29.73;;;;;;;2.33;100.00;102835.31;5036703;28;20488;-54
2022/01/15 06:12:33;;;;;;;149.20;28.55;;;;;;;1.80;100.00;102742.63;5036515;28;20044;-55
2022/01/15 06:14:58;;;;;;;144.38;27.38;;;;;;;2.28;100.00;102831.69;5054391;28;20424;-53
2022/01/15 06:17:25;;;;;;;184.50;30.33;;;;;;;2.26;100.00;102834.22;5054206;28;20032;-55
2022/01/15 06:19:50;;;;;;;290.20;36.10;;;;;;;2.24;100.00;102846.28;5054125;28;20033;-56
2022/01/15 06:22:16;;;;;;;116.63;28.65;;;;;;;2.17;100.00;102820.94;5054086;28;20035;-54
2022/01/15 06:24:41;;;;;;;251.80;32.72;;;;;;;1.68;100.00;102740.50;5036396;28;20029;-56
2022/01/15 06:27:08;;;;;;;224.55;32.90;;;;;;;2.24;100.00;102825.50;5054222;28;20029;-56
2022/01/15 06:29:34;;;;;;;211.40;33.42;;;;;;;1.80;100.00;102750.41;5054188;28;20039;-52
2022/01/15 06:31:59;;;;;;;230.48;34.60;;;;;;;1.74;100.00;102739.81;5036011;28;20033;-57
2022/01/15 06:34:24;;;;;;;116.70;29.30;;;;;;;2.21;100.00;102828.00;5052766;28;20083;-53
2022/01/15 06:36:50;;;;;;;188.48;30.30;;;;;;;1.86;100.00;102763.59;5053828;28;20487;-55
2022/01/15 06:39:15;;;;;;;134.45;30.50;;;;;;;2.28;100.00;102839.50;5053969;28;20056;-54
2022/01/15 06:41:41;;;;;;;178.15;33.45;;;;;;;2.05;100.00;102815.31;5053933;28;20113;-58
2022/01/15 06:44:06;;;;;;;129.50;31.33;;;;;;;2.27;100.00;102849.00;5053844;28;20036;-54
2022/01/15 06:46:31;;;;;;;138.15;30.33;;;;;;;2.31;100.00;102837.84;5035911;28;20293;-52
2022/01/15 06:48:57;;;;;;;127.20;31.38;;;;;;;1.99;100.00;102763.16;5053762;28;20045;-58
2022/01/15 06:51:24;;;;;;;139.25;32.22;;;;;;;2.06;100.00;102779.03;5035632;28;20040;-52
2022/01/15 06:53:49;;;;;;;137.43;30.70;;;;;;;2.37;100.00;102827.66;5053822;28;20124;-53
2022/01/15 06:56:15;;;;;;;126.32;29.80;;;;;;;2.36;100.00;102823.31;5053697;28;20159;-56
2022/01/15 06:58:40;;;;;;;165.75;33.65;;;;;;;2.28;100.00;102823.91;5035653;28;20029;-51
2022/01/15 07:01:05;;;;;;;109.10;29.38;;;;;;;2.32;100.00;102829.22;5019329;28;20097;-58
2022/01/15 07:03:31;;;;;;;179.75;31.95;;;;;;;2.26;100.00;102826.44;5053561;28;20365;-59
2022/01/15 07:05:56;;;;;;;154.05;32.22;;;;;;;2.25;100.00;102819.47;5053414;28;20052;-53
2022/01/15 07:08:22;;;;;;;138.02;30.35;;;;;;;2.25;100.00;102829.84;5035601;28;20040;-55
2022/01/15 07:10:47;;;;;;;150.80;33.97;;;;;;;2.26;100.00;102827.31;5053585;28;20546;-54
2022/01/15 07:13:12;;;;;;;117.88;31.35;;;;;;;2.28;100.00;102835.16;5053371;28;20033;-56
2022/01/15 07:15:38;;;;;;;174.75;36.92;;;;;;;2.24;100.00;102821.19;5053235;28;20044;-56
2022/01/15 07:18:03;;;;;;;130.45;32.75;;;;;;;2.16;100.00;102801.00;5067288;28;20029;-51
2022/01/15 07:20:29;;;;;;;138.13;32.90;;;;;;;2.32;100.00;102834.44;5072775;28;20056;-57
2022/01/15 07:22:54;;;;;;;132.73;35.13;;;;;;;1.99;100.00;102770.97;5054658;28;20028;-54
2022/01/15 07:25:20;;;;;;;104.13;31.90;;;;;;;2.33;100.00;102836.22;5072989;28;20108;-56
2022/01/15 07:27:45;;;;;;;142.05;36.50;;;;;;;2.11;100.00;102784.34;5073047;28;20468;-57
2022/01/15 07:30:12;;;;;;;202.05;39.20;;;;;;;2.30;100.00;102817.91;5054720;28;20372;-57
2022/01/15 07:32:39;;;;;;;166.85;40.42;;;;;;;1.82;100.00;102726.25;5072737;28;20467;-52
2022/01/15 07:35:06;;;;;;;125.78;36.97;;;;;;;1.82;100.00;102727.97;5072721;28;20089;-53
2022/01/15 07:37:32;;;;;;;184.55;39.28;;;;;;;2.36;100.00;102822.44;5072757;28;20032;-56
2022/01/15 07:39:58;;;;;;;167.90;39.47;;;;;;;2.28;100.00;102802.25;5072809;28;20024;-56
2022/01/15 07:42:23;;;;;;;172.70;40.17;;;;;;;2.38;100.00;102819.03;5054746;28;20028;-54
2022/01/15 07:44:49;;;;;;;149.18;39.90;;;;;;;2.34;100.00;102819.75;5072153;28;20461;-54
2022/01/15 07:47:14;;;;;;;167.15;42.63;;;;;;;2.43;100.00;102813.97;5072402;28;20088;-57
2022/01/15 07:49:40;;;;;;;210.52;43.47;;;;;;;1.99;100.00;102732.00;5071944;28;20048;-53
2022/01/15 07:52:05;;;;;;;205.95;44.05;;;;;;;1.93;100.00;102716.22;5070048;28;20032;-56
2022/01/15 07:54:30;;;;;;;205.73;42.80;;;;;;;2.45;100.00;102807.13;5052610;28;20098;-57
2022/01/15 07:56:58;;;;;;;185.82;42.38;;;;;;;2.44;100.00;102805.34;5052895;28;20059;-56
2022/01/15 07:59:25;;;;;;;154.75;40.13;;;;;;;2.43;100.00;102808.78;5052157;28;20029;-56
2022/01/15 08:01:51;;;;;;;193.93;42.78;;;;;;;2.39;100.00;102802.63;5052336;28;20032;-51
2022/01/15 08:04:17;;;;;;;268.38;44.42;;;;;;;2.38;100.00;102800.84;5070045;28;20036;-52
2022/01/15 08:06:42;;;;;;;141.75;40.22;;;;;;;2.40;100.00;102811.28;5054660;28;20361;-56
2022/01/15 08:09:08;;;;;;;138.63;40.28;;;;;;;2.28;100.00;102777.13;5072106;28;20446;-55
2022/01/15 08:11:34;;;;;;;184.85;41.17;;;;;;;1.88;100.00;102695.31;5071103;28;20052;-55
2022/01/15 08:13:59;;;;;;;214.45;44.25;;;;;;;2.44;100.00;102803.66;5072201;28;20043;-55
2022/01/15 08:16:25;;;;;;;198.38;42.42;;;;;;;2.45;100.00;102792.41;5054506;28;20124;-53
2022/01/15 08:18:50;;;;;;;206.25;45.17;;;;;;;2.46;100.00;102788.97;5053649;28;20389;-54
2022/01/15 08:21:16;;;;;;;148.77;40.47;;;;;;;2.11;100.00;102724.59;5071858;28;20420;-53
2022/01/15 08:23:41;;;;;;;203.63;43.33;;;;;;;2.40;100.00;102780.97;5072512;28;20040;-55
2022/01/15 08:26:07;;;;;;;161.23;40.88;;;;;;;2.36;100.00;102776.53;5072257;28;20400;-53
2022/01/15 08:28:32;;;;;;;137.60;39.22;;;;;;;2.44;100.00;102780.25;5072316;28;20517;-56
2022/01/15 08:30:58;;;;;;;168.32;43.17;;;;;;;2.44;100.00;102781.97;5054207;28;20037;-56
2022/01/15 08:33:23;;;;;;;217.02;44.90;;;;;;;2.45;100.00;102774.19;5071270;28;20028;-48
2022/01/15 08:35:48;;;;;;;236.85;46.47;;;;;;;2.47;100.00;102797.66;5071984;28;20029;-56
2022/01/15 08:38:14;;;;;;;224.98;46.67;;;;;;;2.01;100.00;102705.28;5054243;28;20400;-56
2022/01/15 08:40:39;;;;;;;141.30;42.83;;;;;;;2.52;100.00;102780.47;5072160;28;20028;-55
2022/01/15 08:43:05;;;;;;;197.75;45.63;;;;;;;1.99;100.00;102693.03;5072000;28;20033;-53
2022/01/15 08:45:31;;;;;;;219.20;46.17;;;;;;;2.13;100.00;102712.56;5054049;28;20468;-57
2022/01/15 08:47:56;;;;;;;215.07;48.38;;;;;;;2.41;100.00;102751.56;5054098;28;20024;-52
2022/01/15 08:50:23;;;;;;;171.55;45.00;;;;;;;2.11;100.00;102694.31;5034934;28;20057;-54
2022/01/15 08:52:48;;;;;;;240.50;45.42;;;;;;;2.52;100.00;102778.78;5034214;28;20028;-50
2022/01/15 08:55:14;;;;;;;211.43;45.13;;;;;;;2.46;100.00;102764.69;5068462;28;20499;-53
2022/01/15 08:57:40;;;;;;;158.20;42.50;;;;;;;2.58;100.00;102780.69;5055311;28;20482;-55
2022/01/15 09:00:09;;;;;;;214.07;45.03;;;;;;;2.19;100.00;102704.94;5042121;28;20045;-51
2022/01/15 09:02:34;;;;;;;199.73;45.72;;;;;;;2.60;100.00;102766.00;5037954;28;20066;-53
2022/01/15 09:05:00;;;;;;;236.02;44.67;;;;;;;2.30;100.00;102724.38;5037783;28;20434;-50
2022/01/15 09:07:25;;;;;;;205.18;44.28;;;;;;;2.61;100.00;102771.25;5056508;28;20045;-53
2022/01/15 09:09:50;;;;;;;168.50;44.50;;;;;;;2.64;100.00;102773.06;5064192;28;20061;-53
2022/01/15 09:12:17;;;;;;;185.77;44.63;;;;;;;2.46;100.00;102749.97;5037676;28;20369;-54
2022/01/15 09:14:42;;;;;;;214.63;46.55;;;;;;;2.59;100.00;102766.84;5056341;28;20060;-52
2022/01/15 09:17:08;;;;;;;236.32;46.45;;;;;;;2.68;100.00;102782.72;5070800;28;20130;-54
2022/01/15 09:19:33;;;;;;;259.23;46.88;;;;;;;2.67;100.00;102779.25;5038401;28;20036;-51
2022/01/15 09:22:00;;;;;;;282.55;50.08;;;;;;;2.47;100.00;102730.97;5055612;28;20451;-53
2022/01/15 09:24:25;;;;;;;251.77;48.38;;;;;;;2.68;100.00;102770.63;5056235;28;20106;-55
2022/01/15 09:32:05;;;;;;;200.00;48.35;;;;;;;2.78;100.00;102772.66;5055407;28;20051;-52
2022/01/15 09:34:32;;;;;;;228.63;43.58;;;;;;;2.37;100.00;102700.31;5055227;28;20033;-52
2022/01/15 09:36:58;;;;;;;195.82;45.10;;;;;;;2.26;100.00;102678.31;5037697;28;20048;-52
2022/01/15 09:39:23;;;;;;;209.07;44.05;;;;;;;2.74;100.00;102772.53;5038401;28;20032;-51
2022/01/15 09:41:51;;;;;;;178.73;42.72;;;;;;;2.46;100.00;102710.09;5020593;28;20055;-54
2022/01/15 09:44:18;;;;;;;194.57;46.15;;;;;;;2.36;100.00;102701.19;5054845;28;20472;-49
2022/01/15 09:46:47;;;;;;;186.07;43.47;;;;;;;2.82;100.00;102768.44;5037064;28;20117;-52
2022/01/15 09:49:14;;;;;;;177.93;43.15;;;;;;;2.41;100.00;102693.50;5051827;28;20452;-58
2022/01/15 09:51:39;;;;;;;171.05;41.47;;;;;;;2.38;100.00;102685.63;5074794;28;20036;-53
2022/01/15 09:54:05;;;;;;;168.15;42.67;;;;;;;2.91;100.00;102773.91;5074778;28;20036;-57
2022/01/15 09:56:30;;;;;;;240.82;46.97;;;;;;;2.51;100.00;102721.56;5074818;28;20115;-56
2022/01/15 09:58:58;;;;;;;202.60;43.45;;;;;;;2.89;100.00;102770.34;5056167;28;20059;-55
2022/01/15 10:01:23;;;;;;;154.38;41.92;;;;;;;2.92;100.00;102767.00;5075181;28;20051;-53
2022/01/15 10:03:49;;;;;;;161.35;40.28;;;;;;;2.86;100.00;102767.66;5056901;28;20041;-54
2022/01/15 10:06:14;;;;;;;217.57;44.65;;;;;;;2.78;100.00;102745.75;5073392;28;20066;-56
2022/01/15 10:08:40;;;;;;;199.48;43.47;;;;;;;2.32;100.00;102665.53;5056534;28;20078;-57
2022/01/15 10:11:11;;;;;;;191.70;45.50;;;;;;;2.93;100.00;102772.22;5040312;28;20132;-55
2022/01/15 10:13:44;;;;;;;156.30;39.22;;;;;;;2.98;100.00;102761.97;5073762;28;20411;-55
2022/01/15 10:16:17;;;;;;;163.80;39.10;;;;;;;2.45;100.00;102670.22;5056576;28;20395;-56
2022/01/15 10:18:44;;;;;;;172.35;39.40;;;;;;;2.94;100.00;102757.50;5074375;28;20031;-54
2022/01/15 10:21:16;;;;;;;156.38;39.15;;;;;;;2.95;100.00;102754.06;5074385;28;20021;-55
2022/01/15 10:23:48;;;;;;;;;;;;;;;2.99;100.00;102755.91;5074614;28;20110;-57
2022/01/15 10:26:21;;;;;;;140.02;36.90;;;;;;;2.88;100.00;102734.78;5055873;28;19959;-55
2022/01/15 10:28:56;;;;;;;122.43;35.80;;;;;;;2.54;100.00;102677.44;5056330;28;20024;-54
2022/01/15 10:31:24;;;;;;;131.82;37.95;;;;;;;3.04;100.00;102754.31;5073860;28;20098;-55
2022/01/15 10:33:50;;;;;;;125.40;36.92;;;;;;;3.06;100.00;102763.06;5073829;28;20044;-54
2022/01/15 10:36:30;;;;;;;119.82;36.97;;;;;;;3.11;100.00;102761.47;5055783;28;20060;-49
2022/01/15 10:39:18;;;;;;;108.38;35.53;;;;;;;3.14;100.00;102751.16;5073863;28;20036;-56
2022/01/15 10:41:43;;;;;;;114.50;33.97;;;;;;;3.13;100.00;102770.19;5056082;28;20025;-50
2022/01/15 10:44:29;;;;;;;118.18;36.67;;;;;;;3.15;100.00;102751.19;5073788;28;20039;-53
2022/01/15 10:47:21;;;;;;;106.65;34.88;;;;;;;3.10;100.00;102747.56;5073465;28;20028;-50
2022/01/15 10:49:47;;;;;;;123.15;36.67;;;;;;;3.05;100.00;102741.38;5037005;28;20082;-56
2022/01/15 10:52:20;;;;;;;115.63;36.85;;;;;;;3.08;100.00;102741.44;5073438;28;20064;-55
2022/01/15 10:54:51;;;;;;;113.22;36.85;;;;;;;3.16;100.00;102746.84;5073332;28;20056;-54
2022/01/15 10:57:19;;;;;;;133.10;35.92;;;;;;;3.16;100.00;102744.25;5072960;28;20032;-57
2022/01/15 11:00:05;;;;;;;126.05;38.47;;;;;;;3.18;100.00;102743.44;5073248;28;20034;-54
2022/01/15 11:02:31;;;;;;;99.55;34.53;;;;;;;2.71;100.00;102643.31;5073877;28;20046;-54
2022/01/15 11:04:57;;;;;;;115.30;37.33;;;;;;;3.20;100.00;102731.38;5055270;28;20040;-48
2022/01/15 11:07:22;;;;;;;98.10;32.85;;;;;;;2.79;100.00;102674.72;5073231;28;20040;-56
2022/01/15 11:09:50;;;;;;;95.68;33.60;;;;;;;3.14;100.00;102732.94;5073233;28;20098;-52
2022/01/15 11:12:17;;;;;;;97.40;34.30;;;;;;;2.62;100.00;102644.75;5073020;28;20031;-55
2022/01/15 11:14:42;;;;;;;94.15;33.95;;;;;;;3.03;100.00;102714.44;5073113;28;20115;-56
2022/01/15 11:17:08;;;;;;;89.55;34.10;;;;;;;2.99;100.00;102694.34;5073070;28;20072;-56
2022/01/15 11:19:35;;;;;;;107.15;35.90;;;;;;;3.23;100.00;102731.47;5054222;28;20124;-52
2022/01/15 11:22:02;;;;;;;98.35;35.38;;;;;;;3.28;100.00;102734.19;5072922;28;20028;-57
2022/01/15 11:24:28;;;;;;;87.75;33.00;;;;;;;3.35;100.00;102715.31;5072666;28;20492;-54
2022/01/15 11:26:59;;;;;;;78.95;32.78;;;;;;;3.37;100.00;102734.44;5072823;28;20039;-50
2022/01/15 11:29:25;;;;;;;75.45;30.25;;;;;;;3.39;100.00;102718.03;5055560;28;20043;-55
2022/01/15 11:31:53;;;;;;;75.05;30.20;;;;;;;2.89;100.00;102619.50;5073001;28;20048;-58
2022/01/15 11:34:20;;;;;;;70.68;30.27;;;;;;;3.18;100.00;102657.59;5055003;28;20387;-53